Time;durP1;ratioP1;P1;durP2;ratioP2;P2;SDS_P1;SDS_P2;PMS_P1;PMS_P2;Temp;Humidity;BMP_temperature;BMP_pressure;BME280_temperature;BME280_humidity;BME280_pressure;Samples;Min_cycle;Max_cycle;Signal;HPM_P1;HPM_P2
2021/09/19 00:01:17;;;;;;;2.17;2.08;;;14.60;95.50;;;;;;5011190;28;20200;-73
2021/09/19 00:03:42;;;;;;;3.92;2.00;;;14.60;95.70;;;;;;5011200;28;20180;-72
2021/09/19 00:06:08;;;;;;;1.85;1.75;;;14.50;95.80;;;;;;5014153;28;20575;-74
2021/09/19 00:08:34;;;;;;;2.08;1.98;;;14.50;96.20;;;;;;5012481;28;20195;-74
2021/09/19 00:11:00;;;;;;;1.98;1.92;;;14.50;96.20;;;;;;5015681;28;20725;-74
2021/09/19 00:13:26;;;;;;;1.85;1.85;;;14.40;96.10;;;;;;5012197;28;20231;-74
2021/09/19 00:15:52;;;;;;;1.50;1.50;;;14.50;96.40;;;;;;5013031;28;20231;-72
2021/09/19 00:18:18;;;;;;;1.80;1.70;;;14.40;96.30;;;;;;5014071;28;20216;-74
2021/09/19 00:20:45;;;;;;;1.27;1.27;;;14.40;96.30;;;;;;5015012;28;20274;-73
2021/09/19 00:23:11;;;;;;;1.33;1.33;;;14.40;96.20;;;;;;5007836;28;20193;-73
2021/09/19 00:25:36;;;;;;;1.17;1.17;;;14.40;96.10;;;;;;5017331;28;20200;-73
2021/09/19 00:28:04;;;;;;;1.52;1.42;;;14.40;96.10;;;;;;5011915;28;20189;-73
2021/09/19 00:30:30;;;;;;;7.97;1.60;;;14.50;96.30;;;;;;5014100;28;20560;-73
2021/09/19 00:32:57;;;;;;;1.08;1.08;;;14.50;96.60;;;;;;5015431;28;20184;-73
2021/09/19 00:35:22;;;;;;;1.05;1.05;;;14.50;96.10;;;;;;5011274;28;20237;-73
2021/09/19 00:37:48;;;;;;;1.35;1.35;;;14.50;96.30;;;;;;5010503;28;20220;-73
2021/09/19 00:40:14;;;;;;;1.60;1.55;;;14.50;96.00;;;;;;5009709;28;21030;-73
2021/09/19 00:42:40;;;;;;;1.45;1.45;;;14.60;96.00;;;;;;5016216;28;20318;-73
2021/09/19 00:45:11;;;;;;;1.75;1.75;;;14.60;96.10;;;;;;5009586;28;20590;-73
2021/09/19 00:47:39;;;;;;;1.40;1.40;;;14.60;95.90;;;;;;5006562;28;20181;-72
2021/09/19 00:50:05;;;;;;;1.55;1.33;;;14.60;96.00;;;;;;5010990;28;20255;-72
2021/09/19 00:52:31;;;;;;;1.20;1.20;;;14.60;96.20;;;;;;5006810;28;20182;-72
2021/09/19 00:54:59;;;;;;;1.00;1.00;;;14.70;96.30;;;;;;5008916;28;20192;-71
2021/09/19 00:57:26;;;;;;;1.77;1.67;;;14.70;96.40;;;;;;5013583;28;20185;-71
2021/09/19 00:59:52;;;;;;;1.92;1.85;;;14.70;96.30;;;;;;5009459;28;20220;-74
2021/09/19 01:02:19;;;;;;;1.55;1.55;;;14.60;96.10;;;;;;5010042;28;20659;-73
2021/09/19 01:04:46;;;;;;;1.20;1.20;;;14.50;96.50;;;;;;5012061;28;20189;-74
2021/09/19 01:07:13;;;;;;;1.50;1.50;;;14.40;96.50;;;;;;5008852;28;20591;-74
2021/09/19 01:09:40;;;;;;;1.92;1.25;;;14.40;96.90;;;;;;5016909;28;20973;-74
2021/09/19 01:12:07;;;;;;;1.35;1.35;;;14.30;96.70;;;;;;5016694;28;21720;-73
2021/09/19 01:14:36;;;;;;;1.42;1.35;;;14.30;96.80;;;;;;5011304;28;20181;-74
2021/09/19 01:17:02;;;;;;;1.15;1.15;;;14.30;96.80;;;;;;5015882;28;20176;-74
2021/09/19 01:19:28;;;;;;;1.50;1.50;;;14.30;96.80;;;;;;5028585;28;20820;-74
2021/09/19 01:21:54;;;;;;;1.45;1.35;;;14.30;97.10;;;;;;5014293;28;20216;-73
2021/09/19 01:24:21;;;;;;;1.48;1.48;;;14.30;97.20;;;;;;5007504;28;20188;-73
2021/09/19 01:26:47;;;;;;;1.60;1.60;;;14.30;97.30;;;;;;5012953;28;20188;-73
2021/09/19 01:29:13;;;;;;;1.80;1.73;;;14.30;97.50;;;;;;5007943;28;20942;-73
2021/09/19 01:31:39;;;;;;;1.50;1.50;;;14.30;97.50;;;;;;5009440;28;20243;-73
2021/09/19 01:34:05;;;;;;;1.80;1.80;;;14.30;97.50;;;;;;5010754;28;20583;-74
2021/09/19 01:36:35;;;;;;;1.58;1.50;;;14.20;97.50;;;;;;5016782;28;20675;-73
2021/09/19 01:39:02;;;;;;;1.77;1.75;;;14.20;97.30;;;;;;5010000;28;20689;-73
2021/09/19 01:41:27;;;;;;;2.00;1.90;;;14.20;97.60;;;;;;5013867;28;20221;-73
2021/09/19 01:43:54;;;;;;;2.13;2.10;;;14.20;97.90;;;;;;5004115;28;20223;-74
2021/09/19 01:46:20;;;;;;;2.38;2.28;;;14.10;97.70;;;;;;5012426;28;20187;-74
2021/09/19 01:48:46;;;;;;;2.10;2.00;;;14.10;98.10;;;;;;5010113;28;20196;-73
2021/09/19 01:51:12;;;;;;;2.22;2.22;;;14.10;98.20;;;;;;5013775;28;20192;-73
2021/09/19 01:53:39;;;;;;;2.78;2.58;;;14.00;98.20;;;;;;5002260;28;20618;-73
2021/09/19 01:56:06;;;;;;;3.20;3.10;;;14.00;98.20;;;;;;5015854;28;20248;-73
2021/09/19 01:58:39;;;;;;;3.20;3.00;;;14.00;98.30;;;;;;5007784;28;20339;-73
2021/09/19 02:01:04;;;;;;;2.90;2.70;;;13.90;98.30;;;;;;5012599;28;20567;-74
2021/09/19 02:03:30;;;;;;;3.10;3.00;;;14.00;98.50;;;;;;5008899;28;20270;-73
2021/09/19 02:05:56;;;;;;;2.60;2.50;;;13.90;98.50;;;;;;5008293;28;20185;-73
2021/09/19 02:08:21;;;;;;;2.08;2.08;;;14.00;98.50;;;;;;5011064;28;20240;-73
2021/09/19 02:10:47;;;;;;;2.67;2.50;;;14.00;98.50;;;;;;5016533;28;20188;-74
2021/09/19 02:13:13;;;;;;;3.25;3.05;;;14.00;98.50;;;;;;5006277;28;20709;-73
2021/09/19 02:15:38;;;;;;;2.70;2.60;;;14.00;98.50;;;;;;5012690;28;20195;-73
2021/09/19 02:18:04;;;;;;;8.95;2.80;;;14.00;98.50;;;;;;5007255;28;20300;-73
2021/09/19 02:20:30;;;;;;;2.85;2.65;;;14.00;98.50;;;;;;5014840;28;20181;-73
2021/09/19 02:22:56;;;;;;;3.03;2.78;;;14.00;98.50;;;;;;5010754;28;20646;-73
2021/09/19 02:25:21;;;;;;;3.13;3.03;;;14.00;98.50;;;;;;5007038;28;20665;-73
2021/09/19 02:27:47;;;;;;;3.08;2.97;;;14.10;98.50;;;;;;5011583;28;20872;-73
2021/09/19 02:30:15;;;;;;;2.58;2.47;;;14.10;98.50;;;;;;5016542;28;20222;-73
2021/09/19 02:32:41;;;;;;;3.05;2.85;;;14.10;98.50;;;;;;5007014;28;20181;-73
2021/09/19 02:35:08;;;;;;;3.63;2.22;;;14.10;98.50;;;;;;5009547;28;20214;-73
2021/09/19 02:37:39;;;;;;;2.80;2.70;;;14.10;98.50;;;;;;5010192;28;20203;-73
2021/09/19 02:40:06;;;;;;;3.53;3.33;;;14.10;98.50;;;;;;5012110;28;20274;-73
2021/09/19 02:42:32;;;;;;;2.70;2.60;;;14.20;98.50;;;;;;5011093;28;20192;-73
2021/09/19 02:44:58;;;;;;;3.33;3.13;;;14.20;98.50;;;;;;5015438;28;20193;-73
2021/09/19 02:47:24;;;;;;;3.00;2.78;;;14.20;98.50;;;;;;5012742;28;20184;-73
2021/09/19 02:49:50;;;;;;;2.92;2.83;;;14.20;98.50;;;;;;5010603;28;20199;-73
2021/09/19 02:52:15;;;;;;;2.53;2.42;;;14.20;98.50;;;;;;5011194;28;20195;-73
2021/09/19 02:54:41;;;;;;;3.28;3.08;;;14.20;98.50;;;;;;5007644;28;20246;-73
2021/09/19 02:57:07;;;;;;;2.55;2.45;;;14.20;98.50;;;;;;5012926;28;20551;-73
2021/09/19 02:59:32;;;;;;;3.25;3.03;;;14.30;98.50;;;;;;4999494;28;20252;-73
2021/09/19 03:01:58;;;;;;;2.70;2.45;;;14.30;98.50;;;;;;5014968;28;20184;-73
2021/09/19 03:04:24;;;;;;;3.42;3.33;;;14.30;98.50;;;;;;5002201;28;20189;-73
2021/09/19 03:06:49;;;;;;;3.83;3.63;;;14.30;98.50;;;;;;5013139;28;20203;-73
2021/09/19 03:09:15;;;;;;;3.90;3.60;;;14.30;98.50;;;;;;5009568;28;20211;-73
2021/09/19 03:11:41;;;;;;;3.15;2.95;;;14.20;98.50;;;;;;5008702;28;20254;-73
2021/09/19 03:14:06;;;;;;;3.97;3.60;;;14.20;98.50;;;;;;5005995;28;20213;-73
2021/09/19 03:16:32;;;;;;;3.70;3.45;;;14.20;98.50;;;;;;5015208;28;20227;-72
2021/09/19 03:18:58;;;;;;;3.38;3.17;;;14.20;98.50;;;;;;5013554;28;20216;-73
2021/09/19 03:21:24;;;;;;;3.30;3.10;;;14.20;98.50;;;;;;5022867;28;20275;-73
2021/09/19 03:23:49;;;;;;;2.90;2.67;;;14.20;98.50;;;;;;5013377;28;20216;-73
2021/09/19 03:26:15;;;;;;;2.92;2.72;;;14.20;98.50;;;;;;5015194;28;20630;-73
2021/09/19 03:28:41;;;;;;;2.75;2.60;;;14.20;98.50;;;;;;5013203;28;20184;-73
2021/09/19 03:31:07;;;;;;;3.55;2.63;;;14.30;98.50;;;;;;5010543;28;20188;-73
2021/09/19 03:33:32;;;;;;;3.35;2.85;;;14.30;98.50;;;;;;5010047;28;20191;-73
2021/09/19 03:35:58;;;;;;;4.93;3.25;;;14.30;98.50;;;;;;5019047;28;20220;-73
2021/09/19 03:38:24;;;;;;;2.95;2.75;;;14.30;98.50;;;;;;5011951;28;20756;-74
2021/09/19 03:40:49;;;;;;;3.13;2.92;;;14.40;98.50;;;;;;5015009;28;20269;-73
2021/09/19 03:43:15;;;;;;;2.97;2.78;;;14.40;98.50;;;;;;5017075;28;20666;-73
2021/09/19 03:45:41;;;;;;;3.03;2.75;;;14.40;98.50;;;;;;5012929;28;20191;-73
2021/09/19 03:48:08;;;;;;;3.30;3.10;;;14.40;98.50;;;;;;5014729;28;20763;-72
2021/09/19 03:50:35;;;;;;;4.07;3.78;;;14.50;98.50;;;;;;5013101;28;20577;-72
2021/09/19 03:53:01;;;;;;;3.53;3.22;;;14.40;98.50;;;;;;5017032;28;20268;-71
2021/09/19 03:55:27;;;;;;;3.35;3.15;;;14.40;98.50;;;;;;5013641;28;20275;-72
2021/09/19 03:57:53;;;;;;;3.20;3.03;;;14.50;98.50;;;;;;5015356;28;20181;-72
2021/09/19 04:00:19;;;;;;;4.03;3.72;;;14.40;98.50;;;;;;5019005;28;20200;-72
2021/09/19 04:02:45;;;;;;;3.65;3.40;;;14.40;98.50;;;;;;5006867;28;20612;-72
2021/09/19 04:05:12;;;;;;;3.80;3.50;;;14.50;98.50;;;;;;5010910;28;20574;-72
2021/09/19 04:07:38;;;;;;;4.32;4.03;;;14.50;98.50;;;;;;5013793;28;20189;-73
2021/09/19 04:10:05;;;;;;;3.78;3.53;;;14.40;98.50;;;;;;5005400;28;20309;-72
2021/09/19 04:12:32;;;;;;;3.85;3.63;;;14.50;98.50;;;;;;5007399;28;20193;-73
2021/09/19 04:14:58;;;;;;;3.45;3.25;;;14.40;98.50;;;;;;5015731;28;20194;-73
2021/09/19 04:17:23;;;;;;;3.92;3.72;;;14.40;98.50;;;;;;5016237;28;20215;-73
2021/09/19 04:19:49;;;;;;;3.67;3.47;;;14.40;98.50;;;;;;5009725;28;20217;-72
2021/09/19 04:22:15;;;;;;;4.50;4.10;;;14.40;98.50;;;;;;5007525;28;20683;-72
2021/09/19 04:24:40;;;;;;;3.38;3.20;;;14.30;98.50;;;;;;5013482;28;20180;-73
2021/09/19 04:27:06;;;;;;;3.65;3.47;;;14.30;98.50;;;;;;5006105;28;20185;-73
2021/09/19 04:29:34;;;;;;;4.18;3.58;;;14.30;98.50;;;;;;5008532;28;20188;-73
2021/09/19 04:32:00;;;;;;;5.18;3.78;;;14.30;98.50;;;;;;5017265;28;20173;-73
2021/09/19 04:34:26;;;;;;;3.72;3.42;;;14.30;98.50;;;;;;5015467;28;20272;-74
2021/09/19 04:36:52;;;;;;;3.70;3.47;;;14.20;98.50;;;;;;5020119;28;20660;-74
2021/09/19 04:39:18;;;;;;;4.00;3.70;;;14.20;98.50;;;;;;5013358;28;20212;-73
2021/09/19 04:41:45;;;;;;;3.67;3.47;;;14.20;98.50;;;;;;5008878;28;20199;-73
2021/09/19 04:44:10;;;;;;;4.75;3.35;;;14.20;98.50;;;;;;5008232;28;20188;-73
2021/09/19 04:46:36;;;;;;;3.63;3.42;;;14.30;98.50;;;;;;5013164;28;20181;-73
2021/09/19 04:49:02;;;;;;;4.82;3.70;;;14.30;98.50;;;;;;5013648;28;20670;-72
2021/09/19 04:51:29;;;;;;;3.60;3.22;;;14.30;98.50;;;;;;5017839;28;20265;-74
2021/09/19 04:53:55;;;;;;;3.10;2.90;;;14.40;98.50;;;;;;5007951;28;21147;-74
2021/09/19 04:56:21;;;;;;;2.83;2.72;;;14.50;98.50;;;;;;5011893;28;20242;-75
2021/09/19 04:58:46;;;;;;;3.10;2.80;;;14.50;98.50;;;;;;5017225;28;20235;-75
2021/09/19 05:01:13;;;;;;;3.78;2.72;;;14.60;98.50;;;;;;5016002;28;20338;-74
2021/09/19 05:03:38;;;;;;;3.13;3.00;;;14.60;98.50;;;;;;5008750;28;20736;-75
2021/09/19 05:06:04;;;;;;;3.55;3.35;;;14.70;98.50;;;;;;5015599;28;20229;-74
2021/09/19 05:08:30;;;;;;;3.05;2.85;;;14.70;98.50;;;;;;5011402;28;20284;-75
2021/09/19 05:10:55;;;;;;;5.55;3.08;;;14.70;98.50;;;;;;5015150;28;20209;-74
2021/09/19 05:13:22;;;;;;;3.20;3.00;;;14.80;98.50;;;;;;5006474;28;20980;-76
2021/09/19 05:15:47;;;;;;;2.90;2.80;;;14.90;98.50;;;;;;5011663;28;20251;-72
2021/09/19 05:18:13;;;;;;;3.00;2.70;;;14.90;98.50;;;;;;5014226;28;20354;-74
2021/09/19 05:20:39;;;;;;;4.03;3.13;;;15.00;98.50;;;;;;5014751;28;20210;-74
2021/09/19 05:23:04;;;;;;;2.92;2.78;;;15.00;98.50;;;;;;5010293;28;20189;-74
2021/09/19 05:25:30;;;;;;;2.88;2.67;;;15.10;98.50;;;;;;5012887;28;20177;-72
2021/09/19 05:27:56;;;;;;;2.67;2.58;;;15.10;98.50;;;;;;5015297;28;20219;-71
2021/09/19 05:30:22;;;;;;;3.20;2.63;;;15.20;98.50;;;;;;5009408;28;20193;-73
2021/09/19 05:32:48;;;;;;;2.85;2.72;;;15.30;98.50;;;;;;5007820;28;20180;-72
2021/09/19 05:35:14;;;;;;;3.47;3.13;;;15.30;98.50;;;;;;5014303;28;20188;-73
2021/09/19 05:37:40;;;;;;;3.72;3.20;;;15.30;98.50;;;;;;5017024;28;20237;-75
2021/09/19 05:40:08;;;;;;;3.42;3.33;;;15.40;97.90;;;;;;5009906;28;20363;-75
2021/09/19 05:42:34;;;;;;;3.72;3.53;;;15.40;97.50;;;;;;5007284;28;20189;-73
2021/09/19 05:45:00;;;;;;;3.88;3.67;;;15.30;97.40;;;;;;5010740;28;20260;-72
2021/09/19 05:47:26;;;;;;;6.65;3.65;;;15.30;97.30;;;;;;5010795;28;20181;-71
2021/09/19 05:49:52;;;;;;;4.93;3.42;;;15.20;97.40;;;;;;5015096;28;20200;-73
2021/09/19 05:52:18;;;;;;;3.72;3.53;;;15.20;97.30;;;;;;5012812;28;20180;-73
2021/09/19 05:54:43;;;;;;;3.85;3.65;;;15.20;97.70;;;;;;5010020;28;20189;-73
2021/09/19 05:57:09;;;;;;;5.25;3.70;;;15.20;98.00;;;;;;5007804;28;20187;-71
2021/09/19 05:59:35;;;;;;;4.47;4.07;;;15.20;97.70;;;;;;5007269;28;20235;-73
2021/09/19 06:02:00;;;;;;;4.18;3.88;;;15.20;97.70;;;;;;5008145;28;20207;-73
2021/09/19 06:04:26;;;;;;;3.42;3.22;;;15.20;97.40;;;;;;5009912;28;20190;-73
2021/09/19 06:06:52;;;;;;;2.45;2.35;;;15.20;97.20;;;;;;5013807;28;20219;-73
2021/09/19 06:09:17;;;;;;;3.80;2.00;;;15.20;96.80;;;;;;5011369;28;20191;-73
2021/09/19 06:11:43;;;;;;;2.83;2.63;;;15.30;96.90;;;;;;5013200;28;20250;-72
2021/09/19 06:14:10;;;;;;;2.92;2.72;;;15.40;97.10;;;;;;5006352;28;20216;-73
2021/09/19 06:16:36;;;;;;;3.13;2.95;;;15.50;97.10;;;;;;5010036;28;20181;-73
2021/09/19 06:19:03;;;;;;;2.90;2.80;;;15.50;97.10;;;;;;5009920;28;20208;-73
2021/09/19 06:21:29;;;;;;;2.83;2.63;;;15.60;97.10;;;;;;5012773;28;20220;-73
2021/09/19 06:23:55;;;;;;;2.70;2.50;;;15.70;97.10;;;;;;5013348;28;20670;-73
2021/09/19 06:26:20;;;;;;;2.38;2.28;;;15.80;97.00;;;;;;5014077;28;20247;-73
2021/09/19 06:28:46;;;;;;;2.15;2.03;;;15.90;96.40;;;;;;5010826;28;20218;-74
2021/09/19 06:31:12;;;;;;;2.45;2.33;;;16.00;96.20;;;;;;5006611;28;20242;-73
2021/09/19 06:33:38;;;;;;;2.60;2.42;;;16.10;96.30;;;;;;5008686;28;20193;-74
2021/09/19 06:36:04;;;;;;;3.90;3.55;;;16.20;96.40;;;;;;5007853;28;20854;-73
2021/09/19 06:38:30;;;;;;;4.75;4.28;;;16.30;96.40;;;;;;5011006;28;20207;-73
2021/09/19 06:40:56;;;;;;;5.65;4.82;;;16.40;96.30;;;;;;5006195;28;20681;-74
2021/09/19 06:43:22;;;;;;;5.00;4.60;;;16.60;96.20;;;;;;5009558;28;20216;-73
2021/09/19 06:45:47;;;;;;;5.93;4.80;;;16.70;96.10;;;;;;5012517;28;20254;-73
2021/09/19 06:48:13;;;;;;;5.05;4.65;;;16.80;96.10;;;;;;5009550;28;20195;-74
2021/09/19 06:50:39;;;;;;;5.57;5.00;;;16.90;96.00;;;;;;5016018;28;20180;-73
2021/09/19 06:53:05;;;;;;;6.15;5.65;;;17.00;95.70;;;;;;5011069;28;20188;-75
2021/09/19 06:55:30;;;;;;;6.38;5.30;;;17.10;95.50;;;;;;5015659;28;20180;-73
2021/09/19 06:57:57;;;;;;;6.55;5.38;;;17.20;95.30;;;;;;5011007;28;20825;-73
2021/09/19 07:00:23;;;;;;;4.68;4.32;;;17.20;95.10;;;;;;5016326;28;20728;-72
2021/09/19 07:02:50;;;;;;;4.82;4.45;;;17.30;94.70;;;;;;5007104;28;20740;-72
2021/09/19 07:05:16;;;;;;;6.28;5.65;;;17.40;94.50;;;;;;5012852;28;20187;-74
2021/09/19 07:07:42;;;;;;;4.65;4.35;;;17.40;94.30;;;;;;5016422;28;20853;-73
2021/09/19 07:10:08;;;;;;;5.43;4.95;;;17.50;94.10;;;;;;5017754;28;20195;-73
2021/09/19 07:12:34;;;;;;;5.40;4.90;;;17.50;94.00;;;;;;5007995;28;20185;-74
2021/09/19 07:14:59;;;;;;;4.70;4.40;;;17.50;94.10;;;;;;5008061;28;20185;-74
2021/09/19 07:17:25;;;;;;;6.25;4.78;;;17.60;94.40;;;;;;5014128;28;20288;-74
2021/09/19 07:19:51;;;;;;;4.15;3.85;;;17.70;93.70;;;;;;5008511;28;20291;-74
2021/09/19 07:22:16;;;;;;;3.17;3.08;;;17.80;93.40;;;;;;5010677;28;20193;-75
2021/09/19 07:24:42;;;;;;;2.90;2.72;;;17.90;92.80;;;;;;5006899;28;20894;-74
2021/09/19 07:27:08;;;;;;;3.60;3.42;;;18.10;91.50;;;;;;5005939;28;20188;-74
2021/09/19 07:29:34;;;;;;;5.05;3.10;;;18.20;91.30;;;;;;5007031;28;20264;-74
2021/09/19 07:32:06;;;;;;;3.88;3.67;;;18.30;90.50;;;;;;5006799;28;20610;-73
2021/09/19 07:34:33;;;;;;;4.05;3.75;;;18.40;90.70;;;;;;5009180;28;20247;-75
2021/09/19 07:36:59;;;;;;;5.43;4.78;;;18.40;91.10;;;;;;5008553;28;20178;-74
2021/09/19 07:39:26;;;;;;;4.57;4.25;;;18.50;90.80;;;;;;5008327;28;20990;-73
2021/09/19 07:41:55;;;;;;;4.25;3.97;;;18.50;90.20;;;;;;5005646;28;20177;-72
2021/09/19 07:44:22;;;;;;;4.65;2.70;;;18.60;89.60;;;;;;5006145;28;20184;-73
2021/09/19 07:46:49;;;;;;;2.28;2.13;;;18.60;88.20;;;;;;5008831;28;20741;-73
2021/09/19 07:49:16;;;;;;;2.00;1.77;;;18.60;86.40;;;;;;5012998;28;20187;-73
2021/09/19 07:51:44;;;;;;;1.88;1.77;;;18.60;83.80;;;;;;5009354;28;20180;-73
2021/09/19 07:54:10;;;;;;;1.75;1.73;;;18.70;85.40;;;;;;5013834;28;20268;-73
2021/09/19 07:56:35;;;;;;;5.03;2.05;;;18.80;86.10;;;;;;5010869;28;20193;-73
2021/09/19 07:59:01;;;;;;;2.88;1.77;;;19.00;86.30;;;;;;5010858;28;20760;-74
2021/09/19 08:01:27;;;;;;;4.00;2.08;;;19.20;86.10;;;;;;5009420;28;20276;-73
2021/09/19 08:03:52;;;;;;;1.65;1.65;;;19.40;86.10;;;;;;5009299;28;20260;-74
2021/09/19 08:06:22;;;;;;;1.90;1.83;;;19.60;85.00;;;;;;5012338;28;20189;-72
2021/09/19 08:08:51;;;;;;;2.00;1.90;;;19.70;84.10;;;;;;5011797;28;20725;-70
2021/09/19 08:11:17;;;;;;;2.00;2.00;;;19.90;84.30;;;;;;5009638;28;20200;-74
2021/09/19 08:13:43;;;;;;;2.05;1.95;;;20.30;84.40;;;;;;5007093;28;20190;-73
2021/09/19 08:16:10;;;;;;;1.75;1.73;;;20.60;81.90;;;;;;5009479;28;20254;-75
2021/09/19 08:18:36;;;;;;;2.15;2.10;;;21.00;80.70;;;;;;5011744;28;20223;-74
2021/09/19 08:21:02;;;;;;;1.90;1.90;;;21.50;79.90;;;;;;5008463;28;20196;-73
2021/09/19 08:23:28;;;;;;;1.90;1.90;;;22.00;79.30;;;;;;5005882;28;20184;-72
2021/09/19 08:25:55;;;;;;;2.22;2.13;;;22.50;77.80;;;;;;5010869;28;20601;-72
2021/09/19 08:28:21;;;;;;;2.28;2.17;;;23.10;78.40;;;;;;5014414;28;20187;-74
2021/09/19 08:30:46;;;;;;;2.53;2.40;;;23.40;74.50;;;;;;5012550;28;20180;-74
2021/09/19 08:33:12;;;;;;;7.82;2.80;;;23.60;74.50;;;;;;5008386;28;20270;-74
2021/09/19 08:35:38;;;;;;;2.10;2.10;;;23.50;74.50;;;;;;5015968;28;20192;-73
2021/09/19 08:38:04;;;;;;;3.15;2.35;;;23.50;75.40;;;;;;5014960;28;21191;-73
2021/09/19 08:40:30;;;;;;;2.60;2.47;;;23.40;75.60;;;;;;5013366;28;20193;-73
2021/09/19 08:42:56;;;;;;;2.35;2.35;;;23.30;75.60;;;;;;5006073;28;20193;-73
2021/09/19 08:45:22;;;;;;;2.85;2.75;;;23.10;75.90;;;;;;5012280;28;20258;-73
2021/09/19 08:47:51;;;;;;;3.05;2.85;;;23.00;75.80;;;;;;5014163;28;20207;-72
2021/09/19 08:50:20;;;;;;;2.97;2.78;;;22.90;75.90;;;;;;5013911;28;20748;-73
2021/09/19 08:52:46;;;;;;;2.75;2.55;;;22.80;76.60;;;;;;5010578;28;20181;-72
2021/09/19 08:55:12;;;;;;;3.63;2.60;;;22.70;76.20;;;;;;5010707;28;20545;-73
2021/09/19 08:57:38;;;;;;;3.17;2.97;;;22.60;76.90;;;;;;5008763;28;20180;-73
2021/09/19 09:00:10;;;;;;;3.28;3.08;;;22.50;77.70;;;;;;5013200;28;20239;-73
2021/09/19 09:02:54;;;;;;;3.53;3.35;;;22.70;78.20;;;;;;5012154;28;20188;-73
2021/09/19 09:05:25;;;;;;;3.20;3.10;;;23.00;75.40;;;;;;5014063;28;20208;-73
2021/09/19 09:07:54;;;;;;;2.65;2.55;;;23.00;75.00;;;;;;5015481;28;21030;-74
2021/09/19 09:10:40;;;;;;;2.80;2.70;;;23.00;75.20;;;;;;5008699;28;20272;-73
2021/09/19 09:13:08;;;;;;;2.75;2.65;;;22.90;74.90;;;;;;5011249;28;20180;-72
2021/09/19 09:15:47;;;;;;;3.72;3.17;;;22.80;74.90;;;;;;5012895;28;20620;-72
2021/09/19 09:18:26;;;;;;;3.22;3.13;;;23.10;75.70;;;;;;5009534;28;20208;-74
2021/09/19 09:21:01;;;;;;;4.82;3.10;;;23.20;73.60;;;;;;5009572;28;20193;-74
2021/09/19 09:23:34;;;;;;;3.30;3.20;;;23.00;73.90;;;;;;5009903;28;20207;-74
2021/09/19 09:26:28;;;;;;;3.83;3.72;;;22.70;74.40;;;;;;5012068;28;20185;-75
2021/09/19 09:29:07;;;;;;;3.38;3.05;;;22.50;74.60;;;;;;5009425;28;20663;-75
2021/09/19 09:31:51;;;;;;;3.50;3.30;;;22.20;75.20;;;;;;5011384;28;20210;-75
2021/09/19 09:34:21;;;;;;;5.15;2.90;;;22.00;76.30;;;;;;5007805;28;20267;-75
2021/09/19 09:36:59;;;;;;;3.78;2.95;;;21.70;76.60;;;;;;5010840;28;20310;-74
2021/09/19 09:39:36;;;;;;;3.88;3.58;;;21.50;76.60;;;;;;5011147;28;20645;-74
2021/09/19 09:42:04;;;;;;;3.83;3.63;;;21.30;77.00;;;;;;5009426;28;20188;-74
2021/09/19 09:44:34;;;;;;;3.90;3.55;;;21.00;78.40;;;;;;5016389;28;20237;-74
2021/09/19 09:47:01;;;;;;;4.07;3.85;;;20.80;79.20;;;;;;5011282;28;20185;-74
2021/09/19 09:49:43;;;;;;;3.70;3.50;;;20.70;79.70;;;;;;5012907;28;20195;-74
2021/09/19 09:52:22;;;;;;;4.07;3.88;;;20.50;79.80;;;;;;5009152;28;20226;-74
2021/09/19 09:55:09;;;;;;;3.63;3.42;;;20.40;79.90;;;;;;5012180;28;20195;-76
2021/09/19 09:57:35;;;;;;;5.68;3.88;;;20.30;80.30;;;;;;5014551;28;20195;-76
2021/09/19 10:00:10;;;;;;;4.07;3.88;;;20.30;80.30;;;;;;5005060;28;20598;-74
2021/09/19 10:02:42;;;;;;;4.75;4.28;;;20.20;80.30;;;;;;5009820;28;20360;-73
2021/09/19 10:05:11;;;;;;;3.13;3.03;;;20.30;80.20;;;;;;5009074;28;20180;-74
2021/09/19 10:07:38;;;;;;;3.28;3.17;;;20.50;81.30;;;;;;5012622;28;20550;-74
2021/09/19 10:10:07;;;;;;;3.83;3.17;;;20.70;80.90;;;;;;5011096;28;20188;-72
2021/09/19 10:12:35;;;;;;;3.80;3.53;;;21.10;80.60;;;;;;5006392;28;20195;-73
2021/09/19 10:15:02;;;;;;;3.72;3.45;;;21.90;79.40;;;;;;5006235;28;20683;-74
2021/09/19 10:17:28;;;;;;;4.63;3.17;;;22.90;78.70;;;;;;5009916;28;20189;-75
2021/09/19 10:19:55;;;;;;;4.40;2.67;;;24.10;77.00;;;;;;5009168;28;20212;-73
2021/09/19 10:22:33;;;;;;;3.35;3.17;;;25.40;74.80;;;;;;5012557;28;20185;-73
2021/09/19 10:24:59;;;;;;;2.80;2.53;;;26.70;71.60;;;;;;5007158;28;20188;-74
2021/09/19 10:27:33;;;;;;;7.32;3.80;;;27.80;70.50;;;;;;5004964;28;20189;-75
2021/09/19 10:30:10;;;;;;;2.95;2.72;;;28.70;68.70;;;;;;5006937;28;20192;-72
2021/09/19 10:32:38;;;;;;;3.70;3.50;;;29.50;68.60;;;;;;5007816;28;20284;-76
2021/09/19 10:35:16;;;;;;;4.05;3.85;;;30.20;66.10;;;;;;5013924;28;20195;-77
2021/09/19 10:38:00;;;;;;;3.65;3.45;;;30.60;63.30;;;;;;5005291;28;20191;-75
2021/09/19 10:40:43;;;;;;;2.85;2.78;;;31.00;64.60;;;;;;5008691;28;20204;-76
2021/09/19 10:43:22;;;;;;;3.85;3.55;;;31.80;64.50;;;;;;5005214;28;20196;-73
2021/09/19 10:45:52;;;;;;;3.42;3.22;;;32.60;61.40;;;;;;5009025;28;20189;-74
2021/09/19 10:48:28;;;;;;;4.40;4.13;;;33.30;60.90;;;;;;5008948;28;20192;-72
2021/09/19 10:51:05;;;;;;;3.30;3.20;;;33.80;59.60;;;;;;5009208;28;20185;-73
2021/09/19 10:53:32;;;;;;;3.85;3.70;;;34.10;58.40;;;;;;5008763;28;20184;-75
2021/09/19 10:56:00;;;;;;;3.75;3.58;;;34.60;59.40;;;;;;5007661;28;20273;-75
2021/09/19 10:58:31;;;;;;;3.38;3.28;;;35.20;58.40;;;;;;5014081;28;20345;-75
2021/09/19 11:01:18;;;;;;;4.45;3.40;;;35.80;57.60;;;;;;5012725;28;20648;-75
2021/09/19 11:04:01;;;;;;;3.75;3.47;;;36.50;54.90;;;;;;5011242;28;20183;-74
2021/09/19 11:06:35;;;;;;;2.78;2.78;;;36.90;53.20;;;;;;5009270;28;20663;-74
2021/09/19 11:09:21;;;;;;;4.35;4.07;;;37.00;54.90;;;;;;5015098;28;20298;-74
2021/09/19 11:12:14;;;;;;;4.80;4.57;;;36.80;50.70;;;;;;5011192;28;20667;-74
2021/09/19 11:15:00;;;;;;;4.18;3.88;;;35.50;51.40;;;;;;5010756;28;20279;-74
2021/09/19 11:17:31;;;;;;;3.60;3.40;;;34.30;54.00;;;;;;5009244;28;20267;-74
2021/09/19 11:20:16;;;;;;;3.78;3.67;;;33.30;58.90;;;;;;5014564;28;20204;-75
2021/09/19 11:22:50;;;;;;;3.95;3.75;;;32.40;57.80;;;;;;5012607;28;20183;-74
2021/09/19 11:25:18;;;;;;;3.58;3.47;;;31.70;60.60;;;;;;5018621;28;20270;-74
2021/09/19 11:27:45;;;;;;;3.85;3.50;;;31.60;62.30;;;;;;5010408;28;20184;-75
2021/09/19 11:30:17;;;;;;;3.88;3.53;;;31.60;60.10;;;;;;5015529;28;20179;-73
2021/09/19 11:32:44;;;;;;;3.38;3.30;;;31.40;60.70;;;;;;5009283;28;20745;-75
2021/09/19 11:35:10;;;;;;;3.80;3.67;;;31.10;61.30;;;;;;5014224;28;20196;-75
2021/09/19 11:37:36;;;;;;;3.53;3.40;;;30.70;61.00;;;;;;5008991;28;20173;-73
2021/09/19 11:40:09;;;;;;;4.65;4.25;;;30.30;62.30;;;;;;5018692;28;20216;-74
2021/09/19 11:42:35;;;;;;;4.40;4.25;;;30.10;60.00;;;;;;5013513;28;20176;-75
2021/09/19 11:45:10;;;;;;;4.88;4.55;;;30.50;61.70;;;;;;5015849;28;20221;-75
2021/09/19 11:47:39;;;;;;;6.20;5.43;;;30.90;62.10;;;;;;5011667;28;20210;-74
2021/09/19 11:50:06;;;;;;;5.45;5.15;;;30.80;61.70;;;;;;5012611;28;20184;-75
2021/09/19 11:52:32;;;;;;;3.88;3.58;;;30.60;62.60;;;;;;5014973;28;20181;-73
2021/09/19 11:54:58;;;;;;;3.78;3.58;;;31.00;63.60;;;;;;5014357;28;20693;-74
2021/09/19 11:57:24;;;;;;;2.95;2.80;;;31.40;61.60;;;;;;5016196;28;20818;-74
2021/09/19 11:59:49;;;;;;;3.45;3.20;;;31.80;61.20;;;;;;5014796;28;20215;-74
2021/09/19 12:02:17;;;;;;;3.55;3.40;;;32.50;60.80;;;;;;5015768;28;20693;-74
2021/09/19 12:04:49;;;;;;;3.20;3.10;;;33.10;58.80;;;;;;5013569;28;20191;-75
2021/09/19 12:07:16;;;;;;;4.18;3.95;;;33.50;58.00;;;;;;5014552;28;20177;-74
2021/09/19 12:09:51;;;;;;;4.50;4.20;;;33.50;58.90;;;;;;5014114;28;20192;-75
2021/09/19 12:12:19;;;;;;;3.50;3.40;;;33.10;58.30;;;;;;5012496;28;20191;-75
2021/09/19 12:14:50;;;;;;;3.95;3.67;;;32.60;59.70;;;;;;5018824;28;20188;-75
2021/09/19 12:17:27;;;;;;;3.20;3.10;;;32.50;60.90;;;;;;5011538;28;20670;-75
2021/09/19 12:20:07;;;;;;;3.15;3.05;;;32.70;59.50;;;;;;5014082;28;20211;-75
2021/09/19 12:22:33;;;;;;;3.05;2.53;;;33.10;60.30;;;;;;5013325;28;20311;-74
2021/09/19 12:25:04;;;;;;;2.95;2.50;;;33.40;58.90;;;;;;5011156;28;20181;-74
2021/09/19 12:27:41;;;;;;;2.30;2.20;;;33.50;58.70;;;;;;5015913;28;20184;-74
2021/09/19 12:30:16;;;;;;;6.15;3.20;;;33.00;57.60;;;;;;5045203;28;20182;-74
2021/09/19 12:32:46;;;;;;;3.45;2.50;;;32.10;59.00;;;;;;5013650;28;20603;-75
2021/09/19 12:35:15;;;;;;;3.17;2.97;;;31.40;60.80;;;;;;5015657;28;20220;-76
2021/09/19 12:37:44;;;;;;;2.67;2.55;;;30.60;62.10;;;;;;5019577;28;20263;-74
2021/09/19 12:40:17;;;;;;;3.05;2.85;;;29.80;64.40;;;;;;5012995;28;20362;-76
2021/09/19 12:42:43;;;;;;;10.00;3.25;;;29.20;65.90;;;;;;5018973;28;20218;-75
2021/09/19 12:45:11;;;;;;;3.35;2.58;;;28.50;66.90;;;;;;5012209;28;20196;-75
2021/09/19 12:47:38;;;;;;;3.55;3.30;;;28.00;68.60;;;;;;5015652;28;20277;-75
2021/09/19 12:50:12;;;;;;;6.10;3.17;;;27.50;69.70;;;;;;5013705;28;20208;-73
2021/09/19 12:52:40;;;;;;;3.97;3.67;;;27.00;70.20;;;;;;5011566;28;20303;-73